Liverpool Whitlam Centre, New South Wales

10:00 PM AEST on August 24, 2016 (GMT +1000)
Moorebank | | Change Station

Elev 66 ft 33.93 °S, 150.95 °E | Updated 11 seconds ago

Rain
Rain
48.7 °F
Feels Like 43 °F
N
13.8
Wind Variable Wind from WSW
Gusts 13.8 mph

Today
High -- | Low -- °F
--% Chance of Precip.
Yesterday
High -- | Low -- °F
Precip. -- in
Pressure 29.74 in
Visibility 5.6 miles
Clouds Few 800 ft
Scattered Clouds 1100 ft
Mostly Cloudy 2700 ft
Windchill 43 °F
Dew Point 46 °F
Humidity 92%
Rainfall 1.56 in
Snow Depth Not available.
6:24 AM 5:32 PM
Waning Gibbous, 57% visible
SPECI YSSY 241149Z 22013KT 9000 RA FEW008 SCT011 BKN027 11/10 Q1007 FM1215 19020KT 9999 -RA SCT015 BKN025 TEMPO 1215/1449 5000 SHRA BKN015
Pressure 29.74 in
Visibility 5.6 miles
Clouds Few 800 ft
Scattered Clouds 1100 ft
Mostly Cloudy 2700 ft
Windchill 43 °F
Dew Point 46 °F
Humidity 92%
Rainfall 1.56 in
Snow Depth Not available.
6:24 AM 5:32 PM
Waning Gibbous, 57% visible
SPECI YSSY 241149Z 22013KT 9000 RA FEW008 SCT011 BKN027 11/10 Q1007 FM1215 19020KT 9999 -RA SCT015 BKN025 TEMPO 1215/1449 5000 SHRA BKN015

10-Day Weather Forecast

Almanac

Astronomy

Aug. 24, 2016 Rise Set
Actual Time
Civil Twilight
Nautical Twilight
Astronomical Twilight
Moon
Length of Visible Light
Length of Day
Tomorrow will be .
, % of the Moon is Illuminated

Today's Extremes

Country Highs Country Lows

Community

WunderPhotos

Upload Photos

1,934,571 photos uploaded!

WunderBlog® & News

Nearby

Air Quality

  Air Quality AQ Index Pollutant
Not available.

Snow Depth

Station Depth Elevation

Earthquake Activity

City Distance Mag. Time & Date
Minimum magnitude displayed is 2.5.

Coastal Water Temperatures

Place Temperature

Stations

Nearby Weather Stations

Station Location Temp. Windchill Dew Point Humidity Wind Precip. Elev Updated Type